createdAt,value
2018-02-21T00:01:25.271Z,55.21
2018-02-21T00:03:53.117Z,55.41
2018-02-21T00:06:20.640Z,55.24
2018-02-21T00:08:48.179Z,55.55
2018-02-21T00:11:15.734Z,55.12
2018-02-21T00:13:43.258Z,56.93
2018-02-21T00:16:11.717Z,56.60
2018-02-21T00:18:39.244Z,56.73
2018-02-21T00:21:06.753Z,57.47
2018-02-21T00:23:34.298Z,57.60
2018-02-21T00:26:01.822Z,57.60
2018-02-21T00:28:29.447Z,57.50
2018-02-21T00:30:56.961Z,58.28
2018-02-21T00:33:24.505Z,57.57
2018-02-21T00:35:52.091Z,58.06
2018-02-21T00:38:19.614Z,57.28
2018-02-21T00:40:47.162Z,58.16
2018-02-21T00:43:14.681Z,57.82
2018-02-21T00:45:42.214Z,57.32
2018-02-21T00:48:09.764Z,58.00
2018-02-21T00:50:37.273Z,57.87
2018-02-21T00:53:04.859Z,58.16
2018-02-21T00:55:32.378Z,57.59
2018-02-21T00:57:59.887Z,57.88
2018-02-21T01:00:27.433Z,57.48
2018-02-21T01:02:54.946Z,56.89
2018-02-21T01:05:22.510Z,57.88
2018-02-21T01:07:50.028Z,57.03
2018-02-21T01:10:17.545Z,57.10
2018-02-21T01:12:45.107Z,57.13
2018-02-21T01:15:12.647Z,57.04
2018-02-21T01:17:40.518Z,58.45
2018-02-21T01:20:08.037Z,57.52
2018-02-21T01:22:35.550Z,57.04
2018-02-21T01:25:03.095Z,56.92
2018-02-21T01:27:30.618Z,57.08
2018-02-21T01:29:58.265Z,57.42
2018-02-21T01:32:25.787Z,56.94
2018-02-21T01:34:53.361Z,56.73
2018-02-21T01:37:20.918Z,56.64
2018-02-21T01:39:48.511Z,56.98
2018-02-21T01:42:16.082Z,56.81
2018-02-21T01:44:43.609Z,57.02
2018-02-21T01:47:11.127Z,57.21
2018-02-21T01:49:38.671Z,57.50
2018-02-21T01:52:06.187Z,57.84
2018-02-21T01:54:33.783Z,57.77
2018-02-21T01:57:01.293Z,57.71
2018-02-21T01:59:28.808Z,57.13
2018-02-21T02:01:56.352Z,57.01
2018-02-21T02:04:24.081Z,56.99
2018-02-21T02:06:51.638Z,56.73
2018-02-21T02:09:19.167Z,57.25
2018-02-21T02:11:46.697Z,57.27
2018-02-21T02:14:14.256Z,57.09
2018-02-21T02:16:41.776Z,57.11
2018-02-21T02:19:09.489Z,57.05
2018-02-21T02:21:37.013Z,57.01
2018-02-21T02:24:04.533Z,57.35
2018-02-21T02:26:32.094Z,56.84
2018-02-21T02:28:59.628Z,56.54
2018-02-21T02:31:27.186Z,56.68
2018-02-21T02:33:54.693Z,56.81
2018-02-21T02:36:22.209Z,56.92
2018-02-21T02:39:01.703Z,56.78
2018-02-21T02:41:29.250Z,56.88
2018-02-21T02:43:56.821Z,56.79
2018-02-21T02:46:24.382Z,57.03
2018-02-21T02:48:51.934Z,57.42
2018-02-21T02:51:19.458Z,57.47
2018-02-21T02:53:46.974Z,57.17
2018-02-21T02:56:14.510Z,57.24
2018-02-21T02:58:42.029Z,57.07
2018-02-21T03:01:09.582Z,56.69
2018-02-21T03:03:37.111Z,57.15
2018-02-21T03:06:04.634Z,57.15
2018-02-21T03:08:32.494Z,56.73
2018-02-21T03:11:00.014Z,56.75
2018-02-21T03:13:27.876Z,57.12
2018-02-21T03:15:55.385Z,57.04
2018-02-21T03:18:22.893Z,56.95
2018-02-21T03:20:50.437Z,56.82
2018-02-21T03:23:17.953Z,57.20
2018-02-21T03:25:45.664Z,57.56
2018-02-21T03:28:13.183Z,56.46
2018-02-21T03:30:40.698Z,57.04
2018-02-21T03:33:08.250Z,56.80
2018-02-21T03:35:35.764Z,56.70
2018-02-21T03:38:03.325Z,56.77
2018-02-21T03:40:30.850Z,56.76
2018-02-21T03:42:58.438Z,56.96
2018-02-21T03:45:25.990Z,57.04
2018-02-21T03:47:53.501Z,57.03
2018-02-21T03:50:21.061Z,57.42
2018-02-21T03:52:48.579Z,57.43
2018-02-21T03:55:16.089Z,57.06
2018-02-21T03:57:43.629Z,57.76
2018-02-21T04:00:11.141Z,57.01
2018-02-21T04:02:38.717Z,57.82
2018-02-21T04:05:06.236Z,57.47
2018-02-21T04:07:33.752Z,58.28
2018-02-21T04:10:01.297Z,58.53
2018-02-21T04:12:28.817Z,58.51
2018-02-21T04:14:56.369Z,57.75
2018-02-21T04:17:23.882Z,57.52
2018-02-21T04:19:51.411Z,57.67
2018-02-21T04:22:18.957Z,57.77
2018-02-21T04:24:46.477Z,58.07
2018-02-21T04:27:14.344Z,57.62
2018-02-21T04:29:41.864Z,58.18
2018-02-21T04:32:09.386Z,57.92
2018-02-21T04:34:37.863Z,58.50
2018-02-21T04:37:05.386Z,58.45
2018-02-21T04:39:32.934Z,58.37
2018-02-21T04:42:01.364Z,58.14
2018-02-21T04:44:28.889Z,57.97
2018-02-21T04:46:56.433Z,58.54
2018-02-21T04:49:23.998Z,58.44
2018-02-21T04:51:51.673Z,58.29
2018-02-21T04:57:36.466Z,58.64
2018-02-21T05:00:04.068Z,58.59
2018-02-21T05:02:31.554Z,58.75
2018-02-21T05:04:59.096Z,58.64
2018-02-21T05:07:26.619Z,59.17
2018-02-21T05:09:54.170Z,59.57
2018-02-21T05:12:21.687Z,59.15
2018-02-21T05:14:49.213Z,59.87
2018-02-21T05:17:16.777Z,59.51
2018-02-21T05:19:44.293Z,59.93
2018-02-21T05:22:11.859Z,59.97
2018-02-21T05:24:39.378Z,59.88
2018-02-21T05:27:06.897Z,61.79
2018-02-21T05:29:34.445Z,61.21
2018-02-21T05:32:01.966Z,60.99
2018-02-21T05:34:29.845Z,60.20
2018-02-21T05:36:57.358Z,59.86
2018-02-21T05:39:25.716Z,59.62
2018-02-21T05:41:53.248Z,59.47
2018-02-21T05:44:20.767Z,59.84
2018-02-21T05:46:48.577Z,59.41
2018-02-21T05:49:16.112Z,59.82
2018-02-21T05:51:43.626Z,60.15
2018-02-21T05:54:11.344Z,60.70
2018-02-21T05:56:38.929Z,59.87
2018-02-21T05:59:06.674Z,59.99
2018-02-21T06:01:34.186Z,60.30
2018-02-21T06:04:01.712Z,60.09
2018-02-21T06:06:29.264Z,59.62
2018-02-21T06:08:56.784Z,59.75
2018-02-21T06:11:24.329Z,59.82
2018-02-21T06:13:51.843Z,59.40
2018-02-21T06:16:19.362Z,60.13
2018-02-21T06:18:46.930Z,59.71
2018-02-21T06:21:14.481Z,59.49
2018-02-21T06:23:42.356Z,59.50
2018-02-21T06:26:09.877Z,59.17
2018-02-21T06:28:38.526Z,60.06
2018-02-21T06:31:06.080Z,60.04
2018-02-21T06:33:33.606Z,59.66
2018-02-21T06:36:01.394Z,58.88
2018-02-21T06:38:28.963Z,59.05
2018-02-21T06:40:56.457Z,59.21
2018-02-21T06:43:24.035Z,59.85
2018-02-21T06:45:51.558Z,59.28
2018-02-21T06:48:19.206Z,59.65
2018-02-21T06:50:46.722Z,60.43
2018-02-21T06:53:14.242Z,59.62
2018-02-21T06:55:41.789Z,59.22
2018-02-21T06:58:09.350Z,58.51
2018-02-21T07:00:36.901Z,58.12
2018-02-21T07:03:04.421Z,57.83
2018-02-21T07:05:32.146Z,58.01
2018-02-21T07:07:59.701Z,58.51
2018-02-21T07:10:27.219Z,57.80
2018-02-21T07:12:54.820Z,58.29
2018-02-21T07:15:22.371Z,57.62
2018-02-21T07:17:49.897Z,57.76
2018-02-21T07:20:17.452Z,57.07
2018-02-21T07:22:44.976Z,57.24
2018-02-21T07:25:12.554Z,56.42
2018-02-21T07:27:40.262Z,56.53
2018-02-21T07:30:07.882Z,56.64
2018-02-21T07:32:36.709Z,56.96
2018-02-21T07:35:04.577Z,56.57
2018-02-21T07:37:32.652Z,55.89
2018-02-21T07:40:01.091Z,55.95
2018-02-21T07:42:29.813Z,56.14
2018-02-21T07:44:57.470Z,55.83
2018-02-21T07:47:25.342Z,55.45
2018-02-21T07:49:54.024Z,55.26
2018-02-21T07:52:21.791Z,55.39
2018-02-21T07:54:49.358Z,55.91
2018-02-21T07:57:17.091Z,55.25
2018-02-21T07:59:44.777Z,54.56
2018-02-21T08:02:12.644Z,54.57
2018-02-21T08:04:40.183Z,54.60
2018-02-21T08:07:07.698Z,53.65
2018-02-21T08:09:35.422Z,53.30
2018-02-21T08:12:03.102Z,53.13
2018-02-21T08:14:30.835Z,53.60
2018-02-21T08:16:58.408Z,53.24
2018-02-21T08:19:25.924Z,53.32
2018-02-21T08:21:53.475Z,53.69
2018-02-21T08:24:20.997Z,54.09
2018-02-21T08:26:48.730Z,53.54
2018-02-21T08:29:16.255Z,53.29
2018-02-21T08:31:43.798Z,52.80
2018-02-21T08:34:11.342Z,52.45
2018-02-21T08:36:38.898Z,53.03
2018-02-21T08:39:06.538Z,53.78
2018-02-21T08:41:34.049Z,53.16
2018-02-21T08:44:01.574Z,52.52
2018-02-21T08:46:29.126Z,51.85
2018-02-21T08:48:56.650Z,52.28
2018-02-21T08:51:24.422Z,52.67
2018-02-21T08:53:51.946Z,51.52
2018-02-21T08:56:19.475Z,51.21
2018-02-21T08:58:47.067Z,50.53
2018-02-21T09:01:14.565Z,51.07
2018-02-21T09:03:42.122Z,51.11
2018-02-21T09:06:09.641Z,50.85
2018-02-21T09:08:37.170Z,50.17
2018-02-21T09:11:04.725Z,49.33
2018-02-21T09:13:32.249Z,49.64
2018-02-21T09:15:59.805Z,48.93
2018-02-21T09:18:27.324Z,49.62
2018-02-21T09:20:54.843Z,49.06
2018-02-21T09:23:22.437Z,48.54
2018-02-21T09:25:51.594Z,47.96
2018-02-21T09:28:19.550Z,47.36
2018-02-21T09:30:47.071Z,46.79
2018-02-21T09:33:14.605Z,46.40
2018-02-21T09:35:42.158Z,46.38
2018-02-21T09:38:09.693Z,44.98
2018-02-21T09:40:37.349Z,42.30
2018-02-21T09:43:04.873Z,42.70
2018-02-21T09:45:32.398Z,44.08
2018-02-21T09:48:00.896Z,43.78
2018-02-21T09:50:28.423Z,43.72
2018-02-21T09:52:56.166Z,42.19
2018-02-21T09:55:23.762Z,41.00
2018-02-21T09:57:51.284Z,39.18
2018-02-21T10:00:18.826Z,40.46
2018-02-21T10:02:46.833Z,40.22
2018-02-21T10:05:14.385Z,39.00
2018-02-21T10:07:41.907Z,38.47
2018-02-21T10:10:09.431Z,35.66
2018-02-21T10:12:36.983Z,36.79
2018-02-21T10:15:04.512Z,35.55
2018-02-21T10:17:32.067Z,35.96
2018-02-21T10:19:59.590Z,34.34
2018-02-21T10:22:27.161Z,30.83
2018-02-21T10:24:54.682Z,29.34
2018-02-21T10:27:22.214Z,26.58
2018-02-21T10:29:49.774Z,24.88
2018-02-21T10:32:17.308Z,26.99
2018-02-21T10:34:44.981Z,29.30
2018-02-21T10:37:12.514Z,29.54
2018-02-21T10:39:40.067Z,29.07
2018-02-21T10:42:07.630Z,28.68
2018-02-21T10:44:35.170Z,30.92
2018-02-21T10:47:03.038Z,34.06
2018-02-21T10:49:30.561Z,35.99
2018-02-21T10:51:58.090Z,37.43
2018-02-21T10:54:25.643Z,40.84
2018-02-21T10:56:53.171Z,41.59
2018-02-21T10:59:20.874Z,41.20
2018-02-21T11:01:48.397Z,40.79
2018-02-21T11:04:15.921Z,39.88
2018-02-21T11:06:43.471Z,36.66
2018-02-21T11:09:11.889Z,33.00
2018-02-21T11:11:39.606Z,31.74
2018-02-21T11:14:07.131Z,31.67
2018-02-21T11:16:34.657Z,30.00
2018-02-21T11:19:02.222Z,27.46
2018-02-21T11:21:29.762Z,23.97
2018-02-21T11:23:57.802Z,24.78
2018-02-21T11:26:25.318Z,24.93
2018-02-21T11:28:52.899Z,25.08
2018-02-21T11:31:20.726Z,24.91
2018-02-21T11:33:48.246Z,22.92
2018-02-21T11:36:15.812Z,23.03
2018-02-21T11:38:43.364Z,27.34
2018-02-21T11:41:10.889Z,26.53
2018-02-21T11:43:38.555Z,26.92
2018-02-21T11:46:06.077Z,24.56
2018-02-21T11:48:34.010Z,25.54
2018-02-21T11:51:01.534Z,24.82
2018-02-21T11:53:29.066Z,23.32
2018-02-21T11:55:56.682Z,24.35
2018-02-21T11:58:24.270Z,25.10
2018-02-21T12:00:52.040Z,25.37
2018-02-21T12:03:19.567Z,27.80
2018-02-21T12:05:47.108Z,29.37
2018-02-21T12:08:14.680Z,29.30
2018-02-21T12:10:42.198Z,28.64
2018-02-21T12:13:09.769Z,26.32
2018-02-21T12:15:37.362Z,27.55
2018-02-21T12:18:04.881Z,25.98
2018-02-21T12:20:32.460Z,26.75
2018-02-21T12:23:00.078Z,27.05
2018-02-21T12:25:28.546Z,28.99
2018-02-21T12:27:56.174Z,27.11
2018-02-21T12:30:24.586Z,22.84
2018-02-21T12:32:52.518Z,21.15
2018-02-21T12:35:21.013Z,20.27
2018-02-21T12:37:48.595Z,19.89
2018-02-21T12:40:21.599Z,20.52
2018-02-21T12:42:49.438Z,24.13
2018-02-21T12:45:16.973Z,27.84
2018-02-21T12:47:44.692Z,29.74
2018-02-21T12:50:12.279Z,33.60
2018-02-21T12:52:40.811Z,34.55
2018-02-21T12:55:08.396Z,35.38
2018-02-21T12:57:36.032Z,34.96
2018-02-21T13:00:03.797Z,37.52
2018-02-21T13:02:31.354Z,38.46
2018-02-21T13:04:58.881Z,38.03
2018-02-21T13:07:26.631Z,37.70
2018-02-21T13:09:54.546Z,38.93
2018-02-21T13:12:22.314Z,38.66
2018-02-21T13:14:50.844Z,38.74
2018-02-21T13:17:22.557Z,38.26
2018-02-21T13:19:50.619Z,37.73
2018-02-21T13:22:19.507Z,38.51
2018-02-21T13:24:47.480Z,38.88
2018-02-21T13:27:15.956Z,38.36
2018-02-21T13:29:43.542Z,38.25
2018-02-21T13:32:11.386Z,38.44
2018-02-21T13:34:39.150Z,38.25
2018-02-21T13:37:08.433Z,37.43
2018-02-21T13:39:36.498Z,37.41
2018-02-21T13:42:04.387Z,38.05
2018-02-21T13:44:32.255Z,38.38
2018-02-21T13:47:00.021Z,37.56
2018-02-21T13:49:27.781Z,37.71
2018-02-21T13:51:55.652Z,38.22
2018-02-21T13:54:23.206Z,39.54
2018-02-21T13:56:51.073Z,38.77
2018-02-21T13:59:19.044Z,38.84
2018-02-21T14:01:46.798Z,40.48
2018-02-21T14:04:14.738Z,40.18
2018-02-21T14:06:42.785Z,39.84
2018-02-21T14:09:11.330Z,40.39
2018-02-21T14:11:39.115Z,40.67
2018-02-21T14:14:06.855Z,40.18
2018-02-21T14:16:34.626Z,40.21
2018-02-21T14:19:02.183Z,39.98
2018-02-21T14:21:29.725Z,39.97
2018-02-21T14:23:57.273Z,40.02
2018-02-21T14:26:24.953Z,40.88
2018-02-21T14:28:53.406Z,39.89
2018-02-21T14:31:20.937Z,39.69
2018-02-21T14:33:48.450Z,40.08
2018-02-21T14:36:16.096Z,40.53
2018-02-21T14:38:43.635Z,39.64
2018-02-21T14:41:11.486Z,40.08
2018-02-21T14:43:39.180Z,39.73
2018-02-21T14:46:06.711Z,40.55
2018-02-21T14:48:34.258Z,40.03
2018-02-21T14:51:01.883Z,40.02
2018-02-21T14:53:29.612Z,40.46
2018-02-21T14:55:57.411Z,40.10
2018-02-21T14:58:25.074Z,40.33
2018-02-21T15:00:52.671Z,40.23
2018-02-21T15:03:21.216Z,40.19
2018-02-21T15:05:48.858Z,40.99
2018-02-21T15:08:16.396Z,41.73
2018-02-21T15:10:43.930Z,41.67
2018-02-21T15:13:11.486Z,40.88
2018-02-21T15:15:39.083Z,41.06
2018-02-21T15:18:06.682Z,41.79
2018-02-21T15:20:34.342Z,41.07
2018-02-21T15:23:02.031Z,42.09
2018-02-21T15:25:29.912Z,40.97
2018-02-21T15:27:57.753Z,41.07
2018-02-21T15:30:25.510Z,41.30
2018-02-21T15:32:53.969Z,41.59
2018-02-21T15:35:21.545Z,41.59
2018-02-21T15:37:49.376Z,42.38
2018-02-21T15:40:17.062Z,42.82
2018-02-21T15:42:45.338Z,42.13
2018-02-21T15:45:12.999Z,42.20
2018-02-21T15:47:40.662Z,42.81
2018-02-21T15:50:08.224Z,42.79
2018-02-21T15:52:35.870Z,43.18
2018-02-21T15:55:03.615Z,43.11
2018-02-21T15:57:31.145Z,43.64
2018-02-21T15:59:58.719Z,42.89
2018-02-21T16:02:26.530Z,43.34
2018-02-21T16:04:54.117Z,43.60
2018-02-21T16:07:21.837Z,44.53
2018-02-21T16:09:49.394Z,44.33
2018-02-21T16:12:17.278Z,44.06
2018-02-21T16:14:45.044Z,44.34
2018-02-21T16:17:12.911Z,44.39
2018-02-21T16:19:40.677Z,44.82
2018-02-21T16:22:08.545Z,44.91
2018-02-21T16:24:37.122Z,45.81
2018-02-21T16:27:05.098Z,45.42
2018-02-21T16:29:32.957Z,45.76
2018-02-21T16:32:00.824Z,45.84
2018-02-21T16:34:28.852Z,45.81
2018-02-21T16:36:57.480Z,46.13
2018-02-21T16:39:25.346Z,46.11
2018-02-21T16:41:53.212Z,46.69
2018-02-21T16:44:21.079Z,47.17
2018-02-21T16:46:49.011Z,47.25
2018-02-21T16:49:16.707Z,47.64
2018-02-21T16:51:44.576Z,47.75
2018-02-21T16:54:17.248Z,47.44
2018-02-21T16:56:44.982Z,47.61
2018-02-21T16:59:12.657Z,48.55
2018-02-21T17:01:40.893Z,47.80
2018-02-21T17:04:08.499Z,48.26
2018-02-21T17:06:36.027Z,48.42
2018-02-21T17:09:03.823Z,48.10
2018-02-21T17:11:31.439Z,48.58
2018-02-21T17:13:59.143Z,48.58
2018-02-21T17:16:27.822Z,48.47
2018-02-21T17:18:55.486Z,49.13
2018-02-21T17:21:23.039Z,49.37
2018-02-21T17:23:50.604Z,49.19
2018-02-21T17:26:18.398Z,49.59
2018-02-21T17:28:46.117Z,49.88
2018-02-21T17:31:13.763Z,49.72
2018-02-21T17:33:41.479Z,49.80
2018-02-21T17:36:09.346Z,49.26
2018-02-21T17:38:37.597Z,49.41
2018-02-21T17:41:10.750Z,49.57
2018-02-21T17:43:38.478Z,49.38
2018-02-21T17:46:06.547Z,49.38
2018-02-21T17:48:34.208Z,49.45
2018-02-21T17:51:02.999Z,49.73
2018-02-21T17:53:30.865Z,50.02
2018-02-21T17:55:58.735Z,50.46
2018-02-21T17:58:26.806Z,50.72
2018-02-21T18:00:54.568Z,50.99
2018-02-21T18:03:22.438Z,51.24
2018-02-21T18:05:50.400Z,51.75
2018-02-21T18:08:18.267Z,51.97
2018-02-21T18:10:46.297Z,52.14
2018-02-21T18:13:14.307Z,51.95
2018-02-21T18:15:42.071Z,51.68
2018-02-21T18:18:09.873Z,51.96
2018-02-21T18:20:37.706Z,51.53
2018-02-21T18:23:05.721Z,51.70
2018-02-21T18:25:33.639Z,51.65
2018-02-21T18:28:01.609Z,51.71
2018-02-21T18:30:29.784Z,51.28
2018-02-21T18:32:57.774Z,51.53
2018-02-21T18:35:25.889Z,51.34
2018-02-21T18:37:53.791Z,51.10
2018-02-21T18:40:21.577Z,50.95
2018-02-21T18:42:49.628Z,51.27
2018-02-21T18:45:17.430Z,51.02
2018-02-21T18:47:45.771Z,51.43
2018-02-21T18:50:13.663Z,51.21
2018-02-21T18:52:41.708Z,51.60
2018-02-21T18:55:09.477Z,51.56
2018-02-21T18:57:37.341Z,51.80
2018-02-21T19:00:05.410Z,51.69
2018-02-21T19:02:33.380Z,52.01
2018-02-21T19:05:01.237Z,52.25
2018-02-21T19:07:29.419Z,52.27
2018-02-21T19:09:58.094Z,52.08
2018-02-21T19:12:26.075Z,52.42
2018-02-21T19:14:53.935Z,52.32
2018-02-21T19:17:21.895Z,52.57
2018-02-21T19:19:50.699Z,53.03
2018-02-21T19:22:18.668Z,52.26
2018-02-21T19:24:46.637Z,52.77
2018-02-21T19:27:14.502Z,52.78
2018-02-21T19:29:42.368Z,52.92
2018-02-21T19:32:11.144Z,53.41
2018-02-21T19:34:39.509Z,53.33
2018-02-21T19:37:07.763Z,53.06
2018-02-21T19:39:35.678Z,53.24
2018-02-21T19:42:03.856Z,53.32
2018-02-21T19:44:33.955Z,53.24
2018-02-21T19:47:01.959Z,53.57
2018-02-21T19:49:30.113Z,53.76
2018-02-21T19:51:58.154Z,53.36
2018-02-21T19:54:26.017Z,53.86
2018-02-21T19:56:54.839Z,53.85
2018-02-21T19:59:23.198Z,53.95
2018-02-21T20:01:51.392Z,54.07
2018-02-21T20:04:19.735Z,53.65
2018-02-21T20:06:47.744Z,54.17
2018-02-21T20:09:15.705Z,54.67
2018-02-21T20:11:44.358Z,54.73
2018-02-21T20:14:12.975Z,54.75
2018-02-21T20:16:42.847Z,54.98
2018-02-21T20:19:10.758Z,55.56
2018-02-21T20:21:39.545Z,54.95
2018-02-21T20:24:07.722Z,54.62
2018-02-21T20:26:36.096Z,53.47
2018-02-21T20:29:05.090Z,52.66
2018-02-21T20:31:32.956Z,52.75
2018-02-21T20:34:01.563Z,52.43
2018-02-21T20:36:29.508Z,52.04
2018-02-21T20:38:58.161Z,52.08
2018-02-21T20:41:26.067Z,52.28
2018-02-21T20:43:54.030Z,52.35
2018-02-21T20:46:21.998Z,52.59
2018-02-21T20:48:50.781Z,52.94
2018-02-21T20:51:19.488Z,53.27
2018-02-21T20:53:47.854Z,53.78
2018-02-21T20:56:17.151Z,53.66
2018-02-21T20:58:45.119Z,54.30
2018-02-21T21:01:13.498Z,54.52
2018-02-21T21:03:41.528Z,55.22
2018-02-21T21:06:09.846Z,55.53
2018-02-21T21:08:37.814Z,54.84
2018-02-21T21:11:05.886Z,54.74
2018-02-21T21:13:39.400Z,54.56
2018-02-21T21:16:08.098Z,55.03
2018-02-21T21:18:35.939Z,55.05
2018-02-21T21:21:04.214Z,55.15
2018-02-21T21:23:32.287Z,54.99
2018-02-21T21:26:00.153Z,55.42
2018-02-21T21:28:28.325Z,55.25
2018-02-21T21:30:56.193Z,54.59
2018-02-21T21:33:24.161Z,54.22
2018-02-21T21:35:52.129Z,54.41
2018-02-21T21:38:19.959Z,54.21
2018-02-21T21:40:48.477Z,54.22
2018-02-21T21:43:16.652Z,54.37
2018-02-21T21:45:44.827Z,54.14
2018-02-21T21:48:12.776Z,53.92
2018-02-21T21:50:40.660Z,54.11
2018-02-21T21:53:08.627Z,53.80
2018-02-21T21:55:37.417Z,53.98
2018-02-21T21:58:05.282Z,54.01
2018-02-21T22:00:33.251Z,54.00
2018-02-21T22:03:02.148Z,54.31
2018-02-21T22:05:31.236Z,54.59
2018-02-21T22:07:59.214Z,54.84
2018-02-21T22:10:27.277Z,54.76
2018-02-21T22:12:56.168Z,54.84
2018-02-21T22:15:24.034Z,54.53
2018-02-21T22:17:52.174Z,55.29
2018-02-21T22:20:20.278Z,54.82
2018-02-21T22:22:48.456Z,54.71
2018-02-21T22:25:16.886Z,55.12
2018-02-21T22:27:44.965Z,55.18
2018-02-21T22:30:13.156Z,54.52
2018-02-21T22:32:40.807Z,54.96
2018-02-21T22:35:08.706Z,55.35
2018-02-21T22:37:36.679Z,55.04
2018-02-21T22:40:04.658Z,55.38
2018-02-21T22:42:32.614Z,55.25
2018-02-21T22:45:00.576Z,55.18
2018-02-21T22:47:28.345Z,55.42
2018-02-21T22:49:56.094Z,55.57
2018-02-21T22:52:23.671Z,55.81
2018-02-21T22:54:51.512Z,56.03
2018-02-21T22:57:19.076Z,55.85
2018-02-21T22:59:46.704Z,55.71
2018-02-21T23:02:14.320Z,55.59
2018-02-21T23:04:41.909Z,55.38
2018-02-21T23:07:09.577Z,55.25
2018-02-21T23:09:37.178Z,56.25
2018-02-21T23:12:04.909Z,55.41
2018-02-21T23:14:33.330Z,55.95
2018-02-21T23:17:00.850Z,55.53
2018-02-21T23:19:28.701Z,55.47
2018-02-21T23:21:56.426Z,55.91
2018-02-21T23:24:24.909Z,56.10
2018-02-21T23:26:52.484Z,55.82
2018-02-21T23:29:20.033Z,55.85
2018-02-21T23:31:47.786Z,56.87
2018-02-21T23:34:15.306Z,56.78
2018-02-21T23:36:42.843Z,56.64
2018-02-21T23:39:10.402Z,56.40
2018-02-21T23:41:37.947Z,56.83
2018-02-21T23:44:05.669Z,56.91
2018-02-21T23:46:33.182Z,57.29
2018-02-21T23:49:00.716Z,56.82
2018-02-21T23:51:28.278Z,57.71
2018-02-21T23:53:55.797Z,57.10
2018-02-21T23:56:23.546Z,57.74
2018-02-21T23:58:51.073Z,57.58
